sensor_id;sensor_type;location;lat;lon;timestamp;P1;durP1;ratioP1;P2;durP2;ratioP2
27746;SDS011;15138;51.012;4.692;2022-10-04T00:02:20;12.75;;;6.85;;
27746;SDS011;15138;51.012;4.692;2022-10-04T00:04:53;11.23;;;6.28;;
27746;SDS011;15138;51.012;4.692;2022-10-04T00:07:27;14.13;;;6.90;;
27746;SDS011;15138;51.012;4.692;2022-10-04T00:09:59;14.63;;;6.22;;
27746;SDS011;15138;51.012;4.692;2022-10-04T00:12:30;17.27;;;7.43;;
27746;SDS011;15138;51.012;4.692;2022-10-04T00:15:06;11.50;;;7.10;;
27746;SDS011;15138;51.012;4.692;2022-10-04T00:18:04;13.13;;;6.45;;
27746;SDS011;15138;51.012;4.692;2022-10-04T00:21:00;17.65;;;7.63;;
27746;SDS011;15138;51.012;4.692;2022-10-04T00:23:40;10.45;;;6.60;;
27746;SDS011;15138;51.012;4.692;2022-10-04T00:34:54;8.18;;;4.82;;
27746;SDS011;15138;51.012;4.692;2022-10-04T00:37:23;8.50;;;5.88;;
27746;SDS011;15138;51.012;4.692;2022-10-04T00:39:56;11.73;;;6.53;;
27746;SDS011;15138;51.012;4.692;2022-10-04T00:45:33;7.57;;;5.22;;
27746;SDS011;15138;51.012;4.692;2022-10-04T00:50:57;10.00;;;4.85;;
27746;SDS011;15138;51.012;4.692;2022-10-04T00:53:36;12.85;;;6.38;;
27746;SDS011;15138;51.012;4.692;2022-10-04T00:56:09;13.00;;;6.50;;
27746;SDS011;15138;51.012;4.692;2022-10-04T00:58:43;10.98;;;4.85;;
27746;SDS011;15138;51.012;4.692;2022-10-04T01:01:12;10.90;;;5.50;;
27746;SDS011;15138;51.012;4.692;2022-10-04T01:03:42;11.27;;;6.20;;
27746;SDS011;15138;51.012;4.692;2022-10-04T01:06:11;9.65;;;5.50;;
27746;SDS011;15138;51.012;4.692;2022-10-04T01:08:42;8.40;;;5.72;;
27746;SDS011;15138;51.012;4.692;2022-10-04T01:11:13;7.75;;;4.65;;
27746;SDS011;15138;51.012;4.692;2022-10-04T01:13:44;6.00;;;4.35;;
27746;SDS011;15138;51.012;4.692;2022-10-04T01:16:16;10.18;;;4.35;;
27746;SDS011;15138;51.012;4.692;2022-10-04T01:18:46;10.65;;;4.32;;
27746;SDS011;15138;51.012;4.692;2022-10-04T01:21:22;6.47;;;4.25;;
27746;SDS011;15138;51.012;4.692;2022-10-04T01:23:54;7.75;;;4.38;;
27746;SDS011;15138;51.012;4.692;2022-10-04T01:26:43;4.15;;;3.45;;
27746;SDS011;15138;51.012;4.692;2022-10-04T01:29:14;5.22;;;3.13;;
27746;SDS011;15138;51.012;4.692;2022-10-04T01:31:44;8.98;;;4.05;;
27746;SDS011;15138;51.012;4.692;2022-10-04T01:34:14;9.93;;;4.75;;
27746;SDS011;15138;51.012;4.692;2022-10-04T01:36:44;8.55;;;4.80;;
27746;SDS011;15138;51.012;4.692;2022-10-04T01:39:15;7.80;;;3.70;;
27746;SDS011;15138;51.012;4.692;2022-10-04T01:41:47;6.85;;;3.45;;
27746;SDS011;15138;51.012;4.692;2022-10-04T01:44:21;11.07;;;4.47;;
27746;SDS011;15138;51.012;4.692;2022-10-04T01:46:53;9.27;;;4.65;;
27746;SDS011;15138;51.012;4.692;2022-10-04T01:49:25;8.23;;;3.63;;
27746;SDS011;15138;51.012;4.692;2022-10-04T01:51:56;6.07;;;3.50;;
27746;SDS011;15138;51.012;4.692;2022-10-04T01:54:29;6.40;;;3.25;;
27746;SDS011;15138;51.012;4.692;2022-10-04T01:57:03;8.45;;;3.38;;
27746;SDS011;15138;51.012;4.692;2022-10-04T01:59:36;6.05;;;3.13;;
27746;SDS011;15138;51.012;4.692;2022-10-04T02:02:08;5.82;;;3.55;;
27746;SDS011;15138;51.012;4.692;2022-10-04T02:04:40;6.13;;;4.30;;
27746;SDS011;15138;51.012;4.692;2022-10-04T02:07:10;10.90;;;5.18;;
27746;SDS011;15138;51.012;4.692;2022-10-04T02:09:40;149.93;;;5.47;;
27746;SDS011;15138;51.012;4.692;2022-10-04T02:12:14;14.52;;;3.60;;
27746;SDS011;15138;51.012;4.692;2022-10-04T02:14:45;5.35;;;3.17;;
27746;SDS011;15138;51.012;4.692;2022-10-04T02:17:19;5.83;;;3.10;;
27746;SDS011;15138;51.012;4.692;2022-10-04T02:19:49;6.43;;;3.13;;
27746;SDS011;15138;51.012;4.692;2022-10-04T02:22:18;4.93;;;2.78;;
27746;SDS011;15138;51.012;4.692;2022-10-04T02:24:48;6.88;;;3.50;;
27746;SDS011;15138;51.012;4.692;2022-10-04T02:27:18;8.90;;;4.30;;
27746;SDS011;15138;51.012;4.692;2022-10-04T02:29:47;9.05;;;4.20;;
27746;SDS011;15138;51.012;4.692;2022-10-04T02:32:16;7.93;;;4.07;;
27746;SDS011;15138;51.012;4.692;2022-10-04T02:35:03;4.85;;;3.00;;
27746;SDS011;15138;51.012;4.692;2022-10-04T02:37:32;7.43;;;4.28;;
27746;SDS011;15138;51.012;4.692;2022-10-04T02:40:02;5.75;;;3.53;;
27746;SDS011;15138;51.012;4.692;2022-10-04T02:42:36;4.88;;;3.17;;
27746;SDS011;15138;51.012;4.692;2022-10-04T02:45:08;4.68;;;2.95;;
27746;SDS011;15138;51.012;4.692;2022-10-04T02:47:42;61.77;;;4.60;;
27746;SDS011;15138;51.012;4.692;2022-10-04T02:50:19;14.43;;;4.40;;
27746;SDS011;15138;51.012;4.692;2022-10-04T02:52:50;15.02;;;3.08;;
27746;SDS011;15138;51.012;4.692;2022-10-04T02:55:22;25.27;;;3.28;;
27746;SDS011;15138;51.012;4.692;2022-10-04T02:57:54;4.35;;;3.30;;
27746;SDS011;15138;51.012;4.692;2022-10-04T03:00:25;4.10;;;3.05;;
27746;SDS011;15138;51.012;4.692;2022-10-04T03:03:08;6.07;;;3.53;;
27746;SDS011;15138;51.012;4.692;2022-10-04T03:05:41;6.15;;;3.20;;
27746;SDS011;15138;51.012;4.692;2022-10-04T03:08:11;6.40;;;3.53;;
27746;SDS011;15138;51.012;4.692;2022-10-04T03:10:41;6.78;;;3.40;;
27746;SDS011;15138;51.012;4.692;2022-10-04T03:13:11;8.18;;;4.32;;
27746;SDS011;15138;51.012;4.692;2022-10-04T03:15:41;10.85;;;5.25;;
27746;SDS011;15138;51.012;4.692;2022-10-04T03:18:10;6.03;;;3.85;;
27746;SDS011;15138;51.012;4.692;2022-10-04T03:20:38;13.15;;;6.43;;
27746;SDS011;15138;51.012;4.692;2022-10-04T03:23:07;8.73;;;4.57;;
27746;SDS011;15138;51.012;4.692;2022-10-04T03:25:38;21.10;;;7.20;;
27746;SDS011;15138;51.012;4.692;2022-10-04T03:28:12;13.88;;;5.97;;
27746;SDS011;15138;51.012;4.692;2022-10-04T03:30:42;12.25;;;7.13;;
27746;SDS011;15138;51.012;4.692;2022-10-04T03:33:14;20.92;;;8.82;;
27746;SDS011;15138;51.012;4.692;2022-10-04T03:35:44;11.25;;;5.80;;
27746;SDS011;15138;51.012;4.692;2022-10-04T03:38:15;15.00;;;7.40;;
27746;SDS011;15138;51.012;4.692;2022-10-04T03:40:46;11.60;;;6.43;;
27746;SDS011;15138;51.012;4.692;2022-10-04T03:43:20;15.63;;;7.45;;
27746;SDS011;15138;51.012;4.692;2022-10-04T03:45:49;13.50;;;7.72;;
27746;SDS011;15138;51.012;4.692;2022-10-04T03:48:21;15.02;;;7.30;;
27746;SDS011;15138;51.012;4.692;2022-10-04T03:50:52;16.08;;;7.43;;
27746;SDS011;15138;51.012;4.692;2022-10-04T03:53:26;12.48;;;6.70;;
27746;SDS011;15138;51.012;4.692;2022-10-04T03:55:54;15.70;;;6.10;;
27746;SDS011;15138;51.012;4.692;2022-10-04T03:58:30;15.43;;;7.27;;
27746;SDS011;15138;51.012;4.692;2022-10-04T04:01:03;15.32;;;6.57;;
27746;SDS011;15138;51.012;4.692;2022-10-04T04:03:45;13.32;;;7.57;;
27746;SDS011;15138;51.012;4.692;2022-10-04T04:06:21;16.63;;;6.20;;
27746;SDS011;15138;51.012;4.692;2022-10-04T04:08:52;11.25;;;5.60;;
27746;SDS011;15138;51.012;4.692;2022-10-04T04:11:23;13.23;;;6.80;;
27746;SDS011;15138;51.012;4.692;2022-10-04T04:13:56;12.38;;;5.75;;
27746;SDS011;15138;51.012;4.692;2022-10-04T04:16:29;10.52;;;5.72;;
27746;SDS011;15138;51.012;4.692;2022-10-04T04:18:58;12.32;;;6.28;;
27746;SDS011;15138;51.012;4.692;2022-10-04T04:21:28;13.98;;;5.75;;
27746;SDS011;15138;51.012;4.692;2022-10-04T04:23:59;8.98;;;4.82;;
27746;SDS011;15138;51.012;4.692;2022-10-04T04:26:33;11.95;;;6.32;;
27746;SDS011;15138;51.012;4.692;2022-10-04T04:29:07;18.17;;;6.47;;
27746;SDS011;15138;51.012;4.692;2022-10-04T04:31:40;14.52;;;4.82;;
27746;SDS011;15138;51.012;4.692;2022-10-04T04:34:15;13.23;;;5.60;;
27746;SDS011;15138;51.012;4.692;2022-10-04T04:36:47;8.98;;;5.07;;
27746;SDS011;15138;51.012;4.692;2022-10-04T04:39:16;12.18;;;6.05;;
27746;SDS011;15138;51.012;4.692;2022-10-04T04:42:04;17.38;;;6.22;;
27746;SDS011;15138;51.012;4.692;2022-10-04T04:44:44;15.23;;;6.43;;
27746;SDS011;15138;51.012;4.692;2022-10-04T04:47:20;15.80;;;6.57;;
27746;SDS011;15138;51.012;4.692;2022-10-04T04:49:54;11.90;;;6.10;;
27746;SDS011;15138;51.012;4.692;2022-10-04T04:52:24;11.10;;;5.80;;
27746;SDS011;15138;51.012;4.692;2022-10-04T04:54:55;14.85;;;6.38;;
27746;SDS011;15138;51.012;4.692;2022-10-04T04:57:24;14.57;;;6.32;;
27746;SDS011;15138;51.012;4.692;2022-10-04T04:59:54;14.13;;;6.20;;
27746;SDS011;15138;51.012;4.692;2022-10-04T05:02:27;15.85;;;6.47;;
27746;SDS011;15138;51.012;4.692;2022-10-04T05:08:02;11.95;;;6.00;;
27746;SDS011;15138;51.012;4.692;2022-10-04T05:10:38;14.57;;;5.45;;
27746;SDS011;15138;51.012;4.692;2022-10-04T05:13:09;17.27;;;5.60;;
27746;SDS011;15138;51.012;4.692;2022-10-04T05:15:40;15.48;;;5.63;;
27746;SDS011;15138;51.012;4.692;2022-10-04T05:18:13;14.70;;;5.88;;
27746;SDS011;15138;51.012;4.692;2022-10-04T05:20:55;13.38;;;5.20;;
27746;SDS011;15138;51.012;4.692;2022-10-04T05:23:25;11.55;;;4.72;;
27746;SDS011;15138;51.012;4.692;2022-10-04T05:25:54;18.08;;;5.75;;
27746;SDS011;15138;51.012;4.692;2022-10-04T05:28:25;12.13;;;5.65;;
27746;SDS011;15138;51.012;4.692;2022-10-04T05:31:00;10.88;;;5.50;;
27746;SDS011;15138;51.012;4.692;2022-10-04T05:33:35;8.43;;;3.90;;
27746;SDS011;15138;51.012;4.692;2022-10-04T05:36:16;6.28;;;3.47;;
27746;SDS011;15138;51.012;4.692;2022-10-04T05:39:08;8.23;;;3.53;;
27746;SDS011;15138;51.012;4.692;2022-10-04T05:41:44;7.13;;;4.38;;
27746;SDS011;15138;51.012;4.692;2022-10-04T05:44:22;7.40;;;3.50;;
27746;SDS011;15138;51.012;4.692;2022-10-04T05:46:55;6.38;;;3.63;;
27746;SDS011;15138;51.012;4.692;2022-10-04T05:49:26;8.57;;;3.65;;
27746;SDS011;15138;51.012;4.692;2022-10-04T05:51:58;9.93;;;3.35;;
27746;SDS011;15138;51.012;4.692;2022-10-04T05:54:29;9.10;;;3.63;;
27746;SDS011;15138;51.012;4.692;2022-10-04T05:57:07;5.70;;;3.60;;
27746;SDS011;15138;51.012;4.692;2022-10-04T05:59:50;10.00;;;3.55;;
27746;SDS011;15138;51.012;4.692;2022-10-04T06:02:38;8.05;;;3.00;;
27746;SDS011;15138;51.012;4.692;2022-10-04T06:08:04;6.45;;;3.90;;
27746;SDS011;15138;51.012;4.692;2022-10-04T06:10:41;7.38;;;2.80;;
27746;SDS011;15138;51.012;4.692;2022-10-04T06:13:26;12.18;;;4.63;;
27746;SDS011;15138;51.012;4.692;2022-10-04T06:16:26;6.75;;;3.30;;
27746;SDS011;15138;51.012;4.692;2022-10-04T06:19:17;9.60;;;3.00;;
27746;SDS011;15138;51.012;4.692;2022-10-04T06:22:17;7.43;;;3.65;;
27746;SDS011;15138;51.012;4.692;2022-10-04T06:24:47;9.23;;;3.60;;
27746;SDS011;15138;51.012;4.692;2022-10-04T06:27:18;44.58;;;3.17;;
27746;SDS011;15138;51.012;4.692;2022-10-04T06:29:52;78.20;;;4.53;;
27746;SDS011;15138;51.012;4.692;2022-10-04T06:32:29;6.47;;;3.03;;
27746;SDS011;15138;51.012;4.692;2022-10-04T06:38:23;18.58;;;4.05;;
27746;SDS011;15138;51.012;4.692;2022-10-04T06:41:29;7.78;;;4.13;;
27746;SDS011;15138;51.012;4.692;2022-10-04T06:47:17;9.68;;;3.42;;
27746;SDS011;15138;51.012;4.692;2022-10-04T06:49:53;4.90;;;3.38;;
27746;SDS011;15138;51.012;4.692;2022-10-04T06:52:42;11.17;;;4.60;;
27746;SDS011;15138;51.012;4.692;2022-10-04T06:55:30;14.02;;;4.72;;
27746;SDS011;15138;51.012;4.692;2022-10-04T06:58:23;6.63;;;4.78;;
27746;SDS011;15138;51.012;4.692;2022-10-04T07:01:01;8.50;;;5.28;;
27746;SDS011;15138;51.012;4.692;2022-10-04T07:03:37;16.48;;;6.97;;
27746;SDS011;15138;51.012;4.692;2022-10-04T07:06:07;20.05;;;7.30;;
27746;SDS011;15138;51.012;4.692;2022-10-04T07:08:40;13.90;;;6.70;;
27746;SDS011;15138;51.012;4.692;2022-10-04T07:11:14;15.13;;;5.97;;
27746;SDS011;15138;51.012;4.692;2022-10-04T07:13:49;9.00;;;5.88;;
27746;SDS011;15138;51.012;4.692;2022-10-04T07:18:56;18.17;;;8.52;;
27746;SDS011;15138;51.012;4.692;2022-10-04T07:21:33;11.52;;;6.63;;
27746;SDS011;15138;51.012;4.692;2022-10-04T07:24:07;13.07;;;7.10;;
27746;SDS011;15138;51.012;4.692;2022-10-04T07:26:42;16.67;;;7.30;;
27746;SDS011;15138;51.012;4.692;2022-10-04T07:29:14;11.45;;;5.93;;
27746;SDS011;15138;51.012;4.692;2022-10-04T07:31:48;13.37;;;5.70;;
27746;SDS011;15138;51.012;4.692;2022-10-04T07:34:29;16.05;;;6.50;;
27746;SDS011;15138;51.012;4.692;2022-10-04T07:36:59;13.57;;;5.35;;
27746;SDS011;15138;51.012;4.692;2022-10-04T07:39:40;17.00;;;6.22;;
27746;SDS011;15138;51.012;4.692;2022-10-04T07:42:18;13.63;;;5.80;;
27746;SDS011;15138;51.012;4.692;2022-10-04T07:44:57;16.25;;;6.32;;
27746;SDS011;15138;51.012;4.692;2022-10-04T07:47:31;12.25;;;5.45;;
27746;SDS011;15138;51.012;4.692;2022-10-04T07:49:59;11.30;;;5.63;;
27746;SDS011;15138;51.012;4.692;2022-10-04T07:52:53;16.60;;;5.63;;
27746;SDS011;15138;51.012;4.692;2022-10-04T07:55:27;12.77;;;5.47;;
27746;SDS011;15138;51.012;4.692;2022-10-04T07:58:01;17.13;;;5.30;;
27746;SDS011;15138;51.012;4.692;2022-10-04T08:00:43;15.68;;;6.25;;
27746;SDS011;15138;51.012;4.692;2022-10-04T08:03:28;13.00;;;5.00;;
27746;SDS011;15138;51.012;4.692;2022-10-04T08:05:59;11.57;;;5.30;;
27746;SDS011;15138;51.012;4.692;2022-10-04T08:08:42;11.68;;;5.30;;
27746;SDS011;15138;51.012;4.692;2022-10-04T08:11:24;14.55;;;5.00;;
27746;SDS011;15138;51.012;4.692;2022-10-04T08:14:03;10.23;;;4.90;;
27746;SDS011;15138;51.012;4.692;2022-10-04T08:16:45;13.93;;;5.25;;
27746;SDS011;15138;51.012;4.692;2022-10-04T08:19:23;13.07;;;5.40;;
27746;SDS011;15138;51.012;4.692;2022-10-04T08:22:06;14.43;;;5.35;;
27746;SDS011;15138;51.012;4.692;2022-10-04T08:24:48;12.55;;;5.35;;
27746;SDS011;15138;51.012;4.692;2022-10-04T08:27:30;12.68;;;5.30;;
27746;SDS011;15138;51.012;4.692;2022-10-04T08:30:07;12.50;;;5.10;;
27746;SDS011;15138;51.012;4.692;2022-10-04T08:32:41;11.75;;;4.93;;
27746;SDS011;15138;51.012;4.692;2022-10-04T08:35:28;16.60;;;4.90;;
27746;SDS011;15138;51.012;4.692;2022-10-04T08:38:07;14.30;;;5.30;;
27746;SDS011;15138;51.012;4.692;2022-10-04T08:41:04;13.10;;;4.77;;
27746;SDS011;15138;51.012;4.692;2022-10-04T08:44:13;13.43;;;5.07;;
27746;SDS011;15138;51.012;4.692;2022-10-04T08:47:30;12.25;;;4.90;;
27746;SDS011;15138;51.012;4.692;2022-10-04T08:53:34;13.13;;;4.22;;
27746;SDS011;15138;51.012;4.692;2022-10-04T08:56:41;9.98;;;4.10;;
27746;SDS011;15138;51.012;4.692;2022-10-04T08:59:20;8.25;;;3.85;;
27746;SDS011;15138;51.012;4.692;2022-10-04T09:02:19;8.90;;;4.32;;
27746;SDS011;15138;51.012;4.692;2022-10-04T09:08:08;11.07;;;4.55;;
27746;SDS011;15138;51.012;4.692;2022-10-04T09:11:14;11.02;;;4.05;;
27746;SDS011;15138;51.012;4.692;2022-10-04T09:14:05;8.27;;;3.63;;
27746;SDS011;15138;51.012;4.692;2022-10-04T09:16:51;13.48;;;4.30;;
27746;SDS011;15138;51.012;4.692;2022-10-04T09:19:37;11.02;;;4.65;;
27746;SDS011;15138;51.012;4.692;2022-10-04T09:22:16;9.57;;;4.30;;
27746;SDS011;15138;51.012;4.692;2022-10-04T09:27:49;8.15;;;4.20;;
27746;SDS011;15138;51.012;4.692;2022-10-04T09:30:45;12.95;;;4.35;;
27746;SDS011;15138;51.012;4.692;2022-10-04T09:33:30;10.77;;;3.85;;
27746;SDS011;15138;51.012;4.692;2022-10-04T09:36:15;11.98;;;4.10;;
27746;SDS011;15138;51.012;4.692;2022-10-04T09:39:11;18.33;;;4.15;;
27746;SDS011;15138;51.012;4.692;2022-10-04T09:48:01;11.38;;;3.70;;
27746;SDS011;15138;51.012;4.692;2022-10-04T09:51:03;12.38;;;3.92;;
27746;SDS011;15138;51.012;4.692;2022-10-04T09:57:21;8.93;;;3.67;;
27746;SDS011;15138;51.012;4.692;2022-10-04T10:00:06;14.45;;;4.40;;
27746;SDS011;15138;51.012;4.692;2022-10-04T10:06:07;12.88;;;3.60;;
27746;SDS011;15138;51.012;4.692;2022-10-04T10:09:04;10.20;;;3.80;;
27746;SDS011;15138;51.012;4.692;2022-10-04T10:11:47;11.93;;;3.75;;
27746;SDS011;15138;51.012;4.692;2022-10-04T10:14:50;7.65;;;3.33;;
27746;SDS011;15138;51.012;4.692;2022-10-04T10:17:31;11.95;;;3.90;;
27746;SDS011;15138;51.012;4.692;2022-10-04T10:23:24;13.93;;;3.97;;
27746;SDS011;15138;51.012;4.692;2022-10-04T10:26:00;10.05;;;3.25;;
27746;SDS011;15138;51.012;4.692;2022-10-04T10:31:33;7.90;;;2.47;;
27746;SDS011;15138;51.012;4.692;2022-10-04T10:34:25;8.55;;;3.15;;
27746;SDS011;15138;51.012;4.692;2022-10-04T10:37:13;8.77;;;3.33;;
27746;SDS011;15138;51.012;4.692;2022-10-04T10:39:51;9.47;;;3.43;;
27746;SDS011;15138;51.012;4.692;2022-10-04T10:42:45;7.75;;;2.92;;
27746;SDS011;15138;51.012;4.692;2022-10-04T10:45:38;8.57;;;2.92;;
27746;SDS011;15138;51.012;4.692;2022-10-04T10:48:14;9.52;;;3.08;;
27746;SDS011;15138;51.012;4.692;2022-10-04T10:50:49;11.35;;;2.65;;
27746;SDS011;15138;51.012;4.692;2022-10-04T10:56:36;6.95;;;2.92;;
27746;SDS011;15138;51.012;4.692;2022-10-04T10:59:20;7.63;;;2.85;;
27746;SDS011;15138;51.012;4.692;2022-10-04T11:08:25;12.98;;;2.92;;
27746;SDS011;15138;51.012;4.692;2022-10-04T11:11:18;8.73;;;2.67;;
27746;SDS011;15138;51.012;4.692;2022-10-04T11:14:08;8.88;;;2.80;;
27746;SDS011;15138;51.012;4.692;2022-10-04T11:19:50;9.25;;;3.05;;
27746;SDS011;15138;51.012;4.692;2022-10-04T11:22:50;8.43;;;2.60;;
27746;SDS011;15138;51.012;4.692;2022-10-04T11:25:55;8.18;;;2.60;;
27746;SDS011;15138;51.012;4.692;2022-10-04T11:28:51;9.17;;;2.30;;
27746;SDS011;15138;51.012;4.692;2022-10-04T11:34:53;5.28;;;2.10;;
27746;SDS011;15138;51.012;4.692;2022-10-04T11:37:31;7.82;;;2.50;;
27746;SDS011;15138;51.012;4.692;2022-10-04T11:40:27;4.80;;;1.88;;
27746;SDS011;15138;51.012;4.692;2022-10-04T11:43:01;7.53;;;2.58;;
27746;SDS011;15138;51.012;4.692;2022-10-04T11:45:36;5.45;;;2.05;;
27746;SDS011;15138;51.012;4.692;2022-10-04T11:48:09;10.15;;;2.40;;
27746;SDS011;15138;51.012;4.692;2022-10-04T11:50:53;8.75;;;2.50;;
27746;SDS011;15138;51.012;4.692;2022-10-04T11:57:05;6.78;;;2.33;;
27746;SDS011;15138;51.012;4.692;2022-10-04T11:59:48;5.70;;;2.58;;
27746;SDS011;15138;51.012;4.692;2022-10-04T12:02:33;5.63;;;2.33;;
27746;SDS011;15138;51.012;4.692;2022-10-04T12:05:22;6.57;;;2.15;;
27746;SDS011;15138;51.012;4.692;2022-10-04T12:08:03;8.52;;;2.20;;
27746;SDS011;15138;51.012;4.692;2022-10-04T12:10:45;6.97;;;2.00;;
27746;SDS011;15138;51.012;4.692;2022-10-04T12:13:38;4.70;;;1.80;;
27746;SDS011;15138;51.012;4.692;2022-10-04T12:16:31;9.55;;;2.28;;
27746;SDS011;15138;51.012;4.692;2022-10-04T12:19:14;6.63;;;2.05;;
27746;SDS011;15138;51.012;4.692;2022-10-04T12:22:07;4.35;;;2.10;;
27746;SDS011;15138;51.012;4.692;2022-10-04T12:25:01;4.30;;;1.80;;
27746;SDS011;15138;51.012;4.692;2022-10-04T12:28:02;4.43;;;2.13;;
27746;SDS011;15138;51.012;4.692;2022-10-04T12:30:55;3.72;;;1.63;;
27746;SDS011;15138;51.012;4.692;2022-10-04T12:33:42;6.68;;;2.13;;
27746;SDS011;15138;51.012;4.692;2022-10-04T12:36:19;4.40;;;1.92;;
27746;SDS011;15138;51.012;4.692;2022-10-04T12:39:00;5.47;;;1.88;;
27746;SDS011;15138;51.012;4.692;2022-10-04T12:41:43;8.23;;;2.25;;
27746;SDS011;15138;51.012;4.692;2022-10-04T12:44:21;5.88;;;2.20;;
27746;SDS011;15138;51.012;4.692;2022-10-04T12:47:21;6.13;;;1.92;;
27746;SDS011;15138;51.012;4.692;2022-10-04T12:50:04;9.85;;;2.30;;
27746;SDS011;15138;51.012;4.692;2022-10-04T12:52:44;4.63;;;2.17;;
27746;SDS011;15138;51.012;4.692;2022-10-04T12:55:23;5.47;;;2.10;;
27746;SDS011;15138;51.012;4.692;2022-10-04T12:57:55;5.53;;;2.28;;
27746;SDS011;15138;51.012;4.692;2022-10-04T13:00:27;6.50;;;2.40;;
27746;SDS011;15138;51.012;4.692;2022-10-04T13:03:24;9.52;;;2.47;;
27746;SDS011;15138;51.012;4.692;2022-10-04T13:06:07;5.93;;;2.30;;
27746;SDS011;15138;51.012;4.692;2022-10-04T13:08:40;5.80;;;2.08;;
27746;SDS011;15138;51.012;4.692;2022-10-04T13:11:18;6.88;;;2.22;;
27746;SDS011;15138;51.012;4.692;2022-10-04T13:14:17;6.70;;;2.20;;
27746;SDS011;15138;51.012;4.692;2022-10-04T13:16:59;8.73;;;2.42;;
27746;SDS011;15138;51.012;4.692;2022-10-04T13:20:00;9.55;;;2.22;;
27746;SDS011;15138;51.012;4.692;2022-10-04T13:22:44;6.65;;;2.10;;
27746;SDS011;15138;51.012;4.692;2022-10-04T13:25:26;6.13;;;2.15;;
27746;SDS011;15138;51.012;4.692;2022-10-04T13:28:10;8.75;;;2.22;;
27746;SDS011;15138;51.012;4.692;2022-10-04T13:30:52;6.80;;;2.10;;
27746;SDS011;15138;51.012;4.692;2022-10-04T13:33:28;8.70;;;2.25;;
27746;SDS011;15138;51.012;4.692;2022-10-04T13:36:04;6.72;;;2.10;;
27746;SDS011;15138;51.012;4.692;2022-10-04T13:41:32;6.95;;;1.98;;
27746;SDS011;15138;51.012;4.692;2022-10-04T13:44:25;5.18;;;1.98;;
27746;SDS011;15138;51.012;4.692;2022-10-04T13:47:04;5.93;;;2.08;;
27746;SDS011;15138;51.012;4.692;2022-10-04T13:50:00;6.55;;;2.25;;
27746;SDS011;15138;51.012;4.692;2022-10-04T13:52:53;5.25;;;2.20;;
27746;SDS011;15138;51.012;4.692;2022-10-04T13:58:41;6.18;;;1.98;;
27746;SDS011;15138;51.012;4.692;2022-10-04T14:01:32;5.35;;;2.00;;
27746;SDS011;15138;51.012;4.692;2022-10-04T14:04:27;7.38;;;2.20;;
27746;SDS011;15138;51.012;4.692;2022-10-04T14:07:22;7.70;;;2.45;;
27746;SDS011;15138;51.012;4.692;2022-10-04T14:10:21;12.18;;;2.50;;
27746;SDS011;15138;51.012;4.692;2022-10-04T14:13:03;7.70;;;2.47;;
27746;SDS011;15138;51.012;4.692;2022-10-04T14:18:44;7.32;;;2.28;;
27746;SDS011;15138;51.012;4.692;2022-10-04T14:21:37;6.57;;;2.30;;
27746;SDS011;15138;51.012;4.692;2022-10-04T14:24:41;6.72;;;2.42;;
27746;SDS011;15138;51.012;4.692;2022-10-04T14:30:42;8.38;;;2.85;;
27746;SDS011;15138;51.012;4.692;2022-10-04T14:36:29;6.88;;;2.45;;
27746;SDS011;15138;51.012;4.692;2022-10-04T14:39:39;6.72;;;2.50;;
27746;SDS011;15138;51.012;4.692;2022-10-04T14:45:25;4.22;;;2.10;;
27746;SDS011;15138;51.012;4.692;2022-10-04T14:48:10;8.57;;;2.55;;
27746;SDS011;15138;51.012;4.692;2022-10-04T14:50:57;6.13;;;2.20;;
27746;SDS011;15138;51.012;4.692;2022-10-04T14:56:25;4.22;;;2.33;;
27746;SDS011;15138;51.012;4.692;2022-10-04T14:59:20;4.80;;;2.10;;
27746;SDS011;15138;51.012;4.692;2022-10-04T15:05:29;4.78;;;2.25;;
27746;SDS011;15138;51.012;4.692;2022-10-04T15:11:11;7.05;;;2.33;;
27746;SDS011;15138;51.012;4.692;2022-10-04T15:13:50;8.50;;;2.70;;
27746;SDS011;15138;51.012;4.692;2022-10-04T15:16:22;6.00;;;2.42;;
27746;SDS011;15138;51.012;4.692;2022-10-04T15:19:03;4.55;;;2.58;;
27746;SDS011;15138;51.012;4.692;2022-10-04T15:21:41;3.88;;;2.35;;
27746;SDS011;15138;51.012;4.692;2022-10-04T15:24:19;7.82;;;2.90;;
27746;SDS011;15138;51.012;4.692;2022-10-04T15:29:39;7.63;;;2.95;;
27746;SDS011;15138;51.012;4.692;2022-10-04T15:32:14;6.65;;;2.70;;
27746;SDS011;15138;51.012;4.692;2022-10-04T15:34:45;6.28;;;3.20;;
27746;SDS011;15138;51.012;4.692;2022-10-04T15:37:25;7.40;;;2.65;;
27746;SDS011;15138;51.012;4.692;2022-10-04T15:40:14;6.18;;;2.90;;
27746;SDS011;15138;51.012;4.692;2022-10-04T15:43:08;6.53;;;3.00;;
27746;SDS011;15138;51.012;4.692;2022-10-04T15:49:15;5.60;;;2.45;;
27746;SDS011;15138;51.012;4.692;2022-10-04T15:52:00;6.38;;;2.58;;
27746;SDS011;15138;51.012;4.692;2022-10-04T15:54:41;4.82;;;2.55;;
27746;SDS011;15138;51.012;4.692;2022-10-04T15:57:22;6.28;;;2.28;;
27746;SDS011;15138;51.012;4.692;2022-10-04T15:59:55;7.63;;;2.28;;
27746;SDS011;15138;51.012;4.692;2022-10-04T16:05:25;5.47;;;2.40;;
27746;SDS011;15138;51.012;4.692;2022-10-04T16:08:01;6.65;;;2.25;;
27746;SDS011;15138;51.012;4.692;2022-10-04T16:10:46;6.32;;;2.80;;
27746;SDS011;15138;51.012;4.692;2022-10-04T16:13:31;10.55;;;4.53;;
27746;SDS011;15138;51.012;4.692;2022-10-04T16:19:18;6.40;;;2.72;;
27746;SDS011;15138;51.012;4.692;2022-10-04T16:21:52;7.97;;;2.92;;
27746;SDS011;15138;51.012;4.692;2022-10-04T16:24:25;7.68;;;3.05;;
27746;SDS011;15138;51.012;4.692;2022-10-04T16:30:12;5.90;;;2.35;;
27746;SDS011;15138;51.012;4.692;2022-10-04T16:33:10;7.78;;;2.70;;
27746;SDS011;15138;51.012;4.692;2022-10-04T16:35:59;7.65;;;2.65;;
27746;SDS011;15138;51.012;4.692;2022-10-04T16:38:32;7.38;;;2.40;;
27746;SDS011;15138;51.012;4.692;2022-10-04T16:41:28;5.75;;;2.55;;
27746;SDS011;15138;51.012;4.692;2022-10-04T16:43:59;5.53;;;2.55;;
27746;SDS011;15138;51.012;4.692;2022-10-04T16:46:29;3.97;;;2.50;;
27746;SDS011;15138;51.012;4.692;2022-10-04T16:49:03;5.97;;;2.55;;
27746;SDS011;15138;51.012;4.692;2022-10-04T16:51:54;4.90;;;2.28;;
27746;SDS011;15138;51.012;4.692;2022-10-04T16:54:41;5.00;;;2.78;;
27746;SDS011;15138;51.012;4.692;2022-10-04T16:57:29;4.60;;;2.27;;
27746;SDS011;15138;51.012;4.692;2022-10-04T16:59:58;7.80;;;2.83;;
27746;SDS011;15138;51.012;4.692;2022-10-04T17:05:42;6.07;;;2.65;;
27746;SDS011;15138;51.012;4.692;2022-10-04T17:08:41;10.77;;;2.95;;
27746;SDS011;15138;51.012;4.692;2022-10-04T17:14:18;9.18;;;4.60;;
27746;SDS011;15138;51.012;4.692;2022-10-04T17:16:58;9.18;;;4.05;;
27746;SDS011;15138;51.012;4.692;2022-10-04T17:19:38;7.15;;;3.63;;
27746;SDS011;15138;51.012;4.692;2022-10-04T17:22:19;6.53;;;3.50;;
27746;SDS011;15138;51.012;4.692;2022-10-04T17:24:56;16.60;;;5.20;;
27746;SDS011;15138;51.012;4.692;2022-10-04T17:27:45;8.25;;;4.85;;
27746;SDS011;15138;51.012;4.692;2022-10-04T17:30:17;14.75;;;8.15;;
27746;SDS011;15138;51.012;4.692;2022-10-04T17:32:52;16.40;;;8.10;;
27746;SDS011;15138;51.012;4.692;2022-10-04T17:35:47;13.02;;;7.45;;
27746;SDS011;15138;51.012;4.692;2022-10-04T17:38:27;17.38;;;6.28;;
27746;SDS011;15138;51.012;4.692;2022-10-04T17:41:03;9.30;;;5.63;;
27746;SDS011;15138;51.012;4.692;2022-10-04T17:43:57;11.80;;;4.45;;
27746;SDS011;15138;51.012;4.692;2022-10-04T17:46:40;7.25;;;3.30;;
27746;SDS011;15138;51.012;4.692;2022-10-04T17:49:10;9.68;;;3.92;;
27746;SDS011;15138;51.012;4.692;2022-10-04T17:52:10;14.65;;;5.43;;
27746;SDS011;15138;51.012;4.692;2022-10-04T17:55:13;7.30;;;4.65;;
27746;SDS011;15138;51.012;4.692;2022-10-04T18:00:17;7.65;;;4.65;;
27746;SDS011;15138;51.012;4.692;2022-10-04T18:03:03;8.82;;;4.10;;
27746;SDS011;15138;51.012;4.692;2022-10-04T18:05:34;10.70;;;4.57;;
27746;SDS011;15138;51.012;4.692;2022-10-04T18:08:11;11.77;;;5.10;;